createdAt,value
2023-05-18T00:01:23.453Z,5.50
2023-05-18T00:03:50.597Z,6.10
2023-05-18T00:06:17.829Z,4.30
2023-05-18T00:08:44.879Z,6.40
2023-05-18T00:11:11.791Z,4.20
2023-05-18T00:13:38.637Z,5.60
2023-05-18T00:16:06.166Z,3.10
2023-05-18T00:18:34.420Z,4.10
2023-05-18T00:21:02.247Z,4.70
2023-05-18T00:23:30.899Z,6.20
2023-05-18T00:25:59.001Z,7.20
2023-05-18T00:28:26.464Z,5.80
2023-05-18T00:30:53.912Z,3.50
2023-05-18T00:33:21.249Z,3.70
2023-05-18T00:35:48.120Z,4.80
2023-05-18T00:38:18.040Z,4.60
2023-05-18T00:40:44.956Z,2.50
2023-05-18T00:43:12.656Z,11.60
2023-05-18T00:45:39.909Z,3.70
2023-05-18T00:48:07.341Z,6.50
2023-05-18T00:50:34.395Z,3.60
2023-05-18T00:53:01.578Z,6.80
2023-05-18T00:55:28.857Z,7.80
2023-05-18T00:57:56.863Z,4.90
2023-05-18T01:00:24.421Z,7.00
2023-05-18T01:02:51.915Z,4.90
2023-05-18T01:05:20.366Z,4.80
2023-05-18T01:07:48.260Z,5.40
2023-05-18T01:10:17.422Z,5.80
2023-05-18T01:12:58.787Z,3.50
2023-05-18T01:15:34.385Z,6.50
2023-05-18T01:18:05.451Z,7.70
2023-05-18T01:21:00.003Z,6.30
2023-05-18T01:23:45.712Z,6.90
2023-05-18T01:26:17.099Z,7.30
2023-05-18T01:28:46.717Z,7.80
2023-05-18T01:31:16.382Z,6.10
2023-05-18T01:33:44.593Z,9.40
2023-05-18T01:36:11.760Z,6.80
2023-05-18T01:38:38.662Z,11.90
2023-05-18T01:41:19.467Z,6.20
2023-05-18T01:43:54.097Z,6.80
2023-05-18T01:49:21.556Z,8.20
2023-05-18T01:51:48.507Z,3.90
2023-05-18T01:54:18.160Z,6.30
2023-05-18T01:56:45.288Z,8.20
2023-05-18T01:59:12.951Z,9.00
2023-05-18T02:01:39.908Z,9.40
2023-05-18T02:04:10.715Z,5.90
2023-05-18T02:06:37.995Z,5.30
2023-05-18T02:09:05.714Z,7.30
2023-05-18T02:11:33.044Z,9.60
2023-05-18T02:14:01.068Z,5.20
2023-05-18T02:16:28.038Z,7.90
2023-05-18T02:18:55.105Z,11.10
2023-05-18T02:21:22.393Z,7.10
2023-05-18T02:23:49.413Z,9.40
2023-05-18T02:26:16.321Z,4.60
2023-05-18T02:28:43.422Z,6.60
2023-05-18T02:31:14.709Z,7.30
2023-05-18T02:33:41.972Z,4.20
2023-05-18T02:36:13.188Z,10.00
2023-05-18T02:38:42.567Z,9.40
2023-05-18T02:41:10.191Z,7.30
2023-05-18T02:43:38.326Z,10.10
2023-05-18T02:46:06.996Z,6.00
2023-05-18T02:48:34.373Z,8.80
2023-05-18T02:51:01.435Z,6.30
2023-05-18T02:53:28.487Z,11.00
2023-05-18T02:56:03.521Z,6.90
2023-05-18T02:58:50.767Z,9.10
2023-05-18T03:01:22.384Z,10.20
2023-05-18T03:03:53.204Z,7.40
2023-05-18T03:06:26.941Z,9.50
2023-05-18T03:08:57.373Z,5.80
2023-05-18T03:11:30.064Z,16.40
2023-05-18T03:13:56.971Z,8.60
2023-05-18T03:16:28.561Z,8.40
2023-05-18T03:18:59.099Z,6.00
2023-05-18T03:21:33.937Z,9.20
2023-05-18T03:24:02.731Z,5.90
2023-05-18T03:26:33.229Z,7.90
2023-05-18T03:29:01.534Z,6.70
2023-05-18T03:31:29.051Z,10.70
2023-05-18T03:33:57.195Z,7.40
2023-05-18T03:36:26.381Z,9.70
2023-05-18T03:38:53.336Z,8.90
2023-05-18T03:41:20.390Z,8.90
2023-05-18T03:43:47.273Z,8.70
2023-05-18T03:46:14.310Z,8.90
2023-05-18T03:48:41.428Z,7.70
2023-05-18T03:51:08.507Z,7.10
2023-05-18T03:53:36.583Z,8.30
2023-05-18T03:56:03.529Z,18.40
2023-05-18T03:58:30.385Z,4.10
2023-05-18T04:00:58.120Z,4.30
2023-05-18T04:03:27.277Z,5.70
2023-05-18T04:05:56.057Z,20.60
2023-05-18T04:08:25.721Z,19.80
2023-05-18T04:10:52.948Z,30.70
2023-05-18T04:13:19.791Z,35.80
2023-05-18T04:15:47.945Z,14.80
2023-05-18T04:18:14.881Z,15.20
2023-05-18T04:20:42.756Z,16.10
2023-05-18T04:23:10.461Z,9.60
2023-05-18T04:25:39.623Z,21.60
2023-05-18T04:28:07.509Z,15.50
2023-05-18T04:30:35.792Z,16.00
2023-05-18T04:33:04.261Z,11.30
2023-05-18T04:35:32.226Z,12.90
2023-05-18T04:37:59.495Z,15.90
2023-05-18T04:40:26.688Z,18.60
2023-05-18T04:42:53.834Z,14.10
2023-05-18T04:45:26.533Z,8.60
2023-05-18T04:47:55.343Z,15.70
2023-05-18T04:50:26.196Z,20.60
2023-05-18T04:52:53.491Z,10.70
2023-05-18T04:55:29.532Z,15.40
2023-05-18T04:58:10.599Z,15.30
2023-05-18T05:00:37.894Z,15.60
2023-05-18T05:03:04.968Z,15.50
2023-05-18T05:05:32.657Z,14.50
2023-05-18T05:07:59.820Z,15.00
2023-05-18T05:10:28.360Z,12.90
2023-05-18T05:12:55.605Z,10.60
2023-05-18T05:15:22.540Z,14.70
2023-05-18T05:17:50.904Z,9.70
2023-05-18T05:20:18.212Z,9.80
2023-05-18T05:22:45.236Z,9.70
2023-05-18T05:25:14.946Z,8.70
2023-05-18T05:27:41.893Z,10.10
2023-05-18T05:30:09.801Z,8.50
2023-05-18T05:32:37.737Z,10.30
2023-05-18T05:35:07.440Z,13.30
2023-05-18T05:37:35.868Z,11.10
2023-05-18T05:40:06.355Z,13.20
2023-05-18T05:42:37.410Z,10.10
2023-05-18T05:45:04.725Z,14.00
2023-05-18T05:47:37.700Z,13.80
2023-05-18T05:50:06.228Z,13.30
2023-05-18T05:52:34.338Z,9.50
2023-05-18T05:55:01.793Z,15.20
2023-05-18T05:57:30.308Z,15.00
2023-05-18T05:59:57.220Z,16.60
2023-05-18T06:02:25.118Z,13.30
2023-05-18T06:04:52.694Z,14.30
2023-05-18T06:07:20.059Z,10.70
2023-05-18T06:09:47.132Z,12.30
2023-05-18T06:12:14.202Z,12.70
2023-05-18T06:14:41.126Z,12.60
2023-05-18T06:17:08.956Z,12.60
2023-05-18T06:19:36.249Z,11.70
2023-05-18T06:22:03.194Z,12.60
2023-05-18T06:24:36.192Z,6.70
2023-05-18T06:27:22.000Z,10.20
2023-05-18T06:30:11.256Z,8.30
2023-05-18T06:32:49.893Z,8.30
2023-05-18T06:35:16.908Z,10.70
2023-05-18T06:37:46.204Z,7.90
2023-05-18T06:40:14.411Z,11.90
2023-05-18T06:42:41.749Z,8.10
2023-05-18T06:45:29.376Z,11.40
2023-05-18T06:48:08.688Z,26.70
2023-05-18T06:50:36.275Z,10.70
2023-05-18T06:53:04.760Z,8.40
2023-05-18T06:55:32.121Z,12.90
2023-05-18T06:57:59.636Z,7.40
2023-05-18T07:00:26.540Z,9.30
2023-05-18T07:02:53.697Z,6.00
2023-05-18T07:05:20.949Z,16.00
2023-05-18T07:07:47.899Z,6.90
2023-05-18T07:10:15.156Z,16.00
2023-05-18T07:12:42.033Z,23.20
2023-05-18T07:15:09.692Z,12.30
2023-05-18T07:17:36.686Z,5.80
2023-05-18T07:20:06.212Z,6.40
2023-05-18T07:22:34.127Z,5.00
2023-05-18T07:25:01.530Z,5.50
2023-05-18T07:27:28.533Z,32.80
2023-05-18T07:29:56.189Z,8.70
2023-05-18T07:32:23.554Z,8.50
2023-05-18T07:34:51.044Z,3.90
2023-05-18T07:37:18.019Z,8.80
2023-05-18T07:39:45.012Z,6.50
2023-05-18T07:42:11.988Z,6.10
2023-05-18T07:44:38.847Z,10.00
2023-05-18T07:47:06.062Z,4.50
2023-05-18T07:49:33.099Z,4.70
2023-05-18T07:52:00.724Z,4.70
2023-05-18T07:54:27.643Z,4.20
2023-05-18T07:56:54.586Z,4.30
2023-05-18T07:59:21.515Z,5.40
2023-05-18T08:01:49.329Z,4.00
2023-05-18T08:04:16.615Z,4.40
2023-05-18T08:06:43.664Z,4.80
2023-05-18T08:09:10.530Z,7.00
2023-05-18T08:11:37.471Z,5.20
2023-05-18T08:14:04.605Z,7.10
2023-05-18T08:16:37.274Z,8.20
2023-05-18T08:19:04.477Z,10.80
2023-05-18T08:21:31.651Z,5.00
2023-05-18T08:23:58.675Z,6.50
2023-05-18T08:26:27.075Z,8.00
2023-05-18T08:28:54.277Z,10.60
2023-05-18T08:31:21.464Z,9.80
2023-05-18T08:33:48.576Z,11.20
2023-05-18T08:36:15.790Z,7.40
2023-05-18T08:38:43.211Z,7.90
2023-05-18T08:41:23.875Z,12.70
2023-05-18T08:43:54.460Z,12.50
2023-05-18T08:46:22.314Z,8.60
2023-05-18T08:48:51.394Z,7.90
2023-05-18T08:51:20.399Z,11.40
2023-05-18T08:53:52.826Z,11.70
2023-05-18T08:56:23.096Z,9.00
2023-05-18T08:58:51.378Z,9.80
2023-05-18T09:01:18.380Z,9.40
2023-05-18T09:03:49.389Z,9.00
2023-05-18T09:06:16.419Z,10.30
2023-05-18T09:08:43.418Z,7.20
2023-05-18T09:11:10.551Z,11.50
2023-05-18T09:13:37.527Z,8.50
2023-05-18T09:16:04.887Z,7.70
2023-05-18T09:18:31.871Z,14.50
2023-05-18T09:20:58.847Z,6.00
2023-05-18T09:23:25.830Z,11.50
2023-05-18T09:25:52.829Z,8.30
2023-05-18T09:28:47.865Z,24.00
2023-05-18T09:33:46.007Z,9.30
2023-05-18T09:36:17.553Z,10.20
2023-05-18T09:38:48.718Z,8.80
2023-05-18T09:41:17.687Z,7.60
2023-05-18T09:43:46.456Z,9.00
2023-05-18T09:46:13.760Z,8.60
2023-05-18T09:48:46.310Z,8.50
2023-05-18T09:51:17.029Z,9.70
2023-05-18T09:53:54.533Z,11.10
2023-05-18T09:56:22.587Z,6.20
2023-05-18T09:58:49.953Z,8.40
2023-05-18T10:01:16.998Z,10.30
2023-05-18T10:03:45.835Z,12.60
2023-05-18T10:06:17.820Z,9.00
2023-05-18T10:08:45.712Z,7.90
2023-05-18T10:11:12.642Z,10.20
2023-05-18T10:13:39.622Z,9.90
2023-05-18T10:16:08.060Z,10.20
2023-05-18T10:18:36.471Z,10.40
2023-05-18T10:21:05.223Z,13.90
2023-05-18T10:23:33.713Z,6.20
2023-05-18T10:26:00.697Z,12.80
2023-05-18T10:28:30.733Z,7.40
2023-05-18T10:30:59.172Z,8.30
2023-05-18T10:33:29.484Z,8.60
2023-05-18T10:35:57.289Z,10.00
2023-05-18T10:38:26.024Z,6.60
2023-05-18T10:40:58.736Z,7.60
2023-05-18T10:43:27.822Z,7.40
2023-05-18T10:45:57.311Z,8.00
2023-05-18T10:48:24.585Z,18.30
2023-05-18T10:50:53.084Z,10.80
2023-05-18T10:53:22.876Z,12.80
2023-05-18T10:55:50.740Z,8.90
2023-05-18T10:58:22.468Z,6.70
2023-05-18T11:00:51.698Z,9.50
2023-05-18T11:03:19.948Z,7.70
2023-05-18T11:05:52.393Z,9.40
2023-05-18T11:08:28.514Z,6.60
2023-05-18T11:11:03.478Z,8.50
2023-05-18T11:13:34.835Z,7.30
2023-05-18T11:16:02.264Z,13.90
2023-05-18T11:18:36.665Z,11.30
2023-05-18T11:21:03.824Z,10.90
2023-05-18T11:23:33.757Z,10.70
2023-05-18T11:26:05.054Z,6.10
2023-05-18T11:28:33.810Z,8.60
2023-05-18T11:31:01.100Z,12.30
2023-05-18T11:33:29.133Z,6.80
2023-05-18T11:36:11.476Z,6.60
2023-05-18T11:39:04.126Z,6.20
2023-05-18T11:41:44.604Z,9.60
2023-05-18T11:44:11.587Z,8.50
2023-05-18T11:46:41.116Z,9.00
2023-05-18T11:49:08.582Z,9.90
2023-05-18T11:51:57.228Z,7.90
2023-05-18T11:54:26.227Z,9.10
2023-05-18T11:56:53.208Z,8.90
2023-05-18T11:59:34.394Z,9.80
2023-05-18T12:02:02.386Z,7.00
2023-05-18T12:04:30.113Z,13.50
2023-05-18T12:06:57.586Z,8.90
2023-05-18T12:09:25.197Z,15.50
2023-05-18T12:11:52.135Z,12.20
2023-05-18T12:14:20.563Z,12.70
2023-05-18T12:16:47.759Z,15.50
2023-05-18T12:19:15.048Z,16.50
2023-05-18T12:21:42.376Z,11.70
2023-05-18T12:24:09.395Z,6.40
2023-05-18T12:26:36.365Z,10.60
2023-05-18T12:29:03.235Z,7.50
2023-05-18T12:31:31.077Z,10.50
2023-05-18T12:33:59.293Z,15.00
2023-05-18T12:36:27.534Z,8.80
2023-05-18T12:38:54.455Z,9.10
2023-05-18T12:41:26.704Z,9.00
2023-05-18T12:43:55.048Z,8.70
2023-05-18T12:46:24.023Z,6.50
2023-05-18T12:48:59.132Z,12.90
2023-05-18T12:51:31.133Z,12.80
2023-05-18T12:53:58.139Z,11.20
2023-05-18T12:56:25.451Z,6.70
2023-05-18T12:58:59.131Z,7.80
2023-05-18T13:01:27.080Z,7.20
2023-05-18T13:03:59.247Z,10.00
2023-05-18T13:06:26.573Z,8.20
2023-05-18T13:08:55.270Z,11.20
2023-05-18T13:11:24.963Z,9.90
2023-05-18T13:14:02.393Z,7.00
2023-05-18T13:16:30.806Z,8.40
2023-05-18T13:18:59.289Z,6.50
2023-05-18T13:21:26.557Z,10.10
2023-05-18T13:23:53.653Z,11.00
2023-05-18T13:26:24.296Z,9.00
2023-05-18T13:28:52.620Z,8.80
2023-05-18T13:31:20.073Z,10.90
2023-05-18T13:33:47.394Z,9.20
2023-05-18T13:36:14.470Z,8.90
2023-05-18T13:38:41.528Z,10.50
2023-05-18T13:41:10.530Z,6.20
2023-05-18T13:43:37.592Z,7.50
2023-05-18T13:46:04.661Z,9.40
2023-05-18T13:48:31.623Z,6.00
2023-05-18T13:50:58.582Z,9.00
2023-05-18T13:53:26.227Z,13.00
2023-05-18T13:55:53.094Z,20.20
2023-05-18T13:58:19.989Z,9.80
2023-05-18T14:00:47.176Z,9.40
2023-05-18T14:03:15.434Z,6.90
2023-05-18T14:05:42.697Z,8.60
2023-05-18T14:08:09.692Z,10.40
2023-05-18T14:10:36.729Z,11.20
2023-05-18T14:13:03.836Z,8.50
2023-05-18T14:15:30.826Z,13.60
2023-05-18T14:17:57.837Z,10.90
2023-05-18T14:20:25.959Z,11.30
2023-05-18T14:22:53.393Z,10.30
2023-05-18T14:25:20.833Z,7.30
2023-05-18T14:27:47.932Z,8.50
2023-05-18T14:30:15.006Z,11.50
2023-05-18T14:32:42.057Z,7.60
2023-05-18T14:35:09.120Z,17.50
2023-05-18T14:37:36.134Z,16.40
2023-05-18T14:40:03.053Z,9.40
2023-05-18T14:42:30.115Z,10.80
2023-05-18T14:44:57.109Z,7.50
2023-05-18T14:47:24.008Z,8.50
2023-05-18T14:49:50.967Z,11.00
2023-05-18T14:52:18.029Z,9.80
2023-05-18T14:54:45.020Z,13.40
2023-05-18T14:57:12.986Z,9.50
2023-05-18T14:59:40.111Z,11.10
2023-05-18T15:02:08.449Z,12.80
2023-05-18T15:04:36.279Z,8.60
2023-05-18T15:07:03.550Z,8.80
2023-05-18T15:09:30.589Z,7.00
2023-05-18T15:11:57.500Z,8.00
2023-05-18T15:14:24.430Z,9.00
2023-05-18T15:16:51.875Z,8.90
2023-05-18T15:19:19.409Z,9.10
2023-05-18T15:21:46.489Z,8.80
2023-05-18T15:24:13.389Z,9.80
2023-05-18T15:26:40.279Z,10.20
2023-05-18T15:29:09.439Z,6.80
2023-05-18T15:31:39.855Z,9.40
2023-05-18T15:34:07.049Z,12.40
2023-05-18T15:36:36.486Z,9.50
2023-05-18T15:39:05.177Z,9.70
2023-05-18T15:41:35.606Z,14.50
2023-05-18T15:44:02.609Z,9.20
2023-05-18T15:46:32.029Z,10.90
2023-05-18T15:48:59.328Z,15.60
2023-05-18T15:51:26.228Z,9.20
2023-05-18T15:53:53.255Z,9.00
2023-05-18T15:56:20.221Z,8.60
2023-05-18T15:58:47.262Z,17.30
2023-05-18T16:01:14.212Z,8.40
2023-05-18T16:03:41.450Z,10.80
2023-05-18T16:06:08.812Z,12.50
2023-05-18T16:08:35.757Z,7.80
2023-05-18T16:11:05.690Z,9.80
2023-05-18T16:13:32.826Z,13.20
2023-05-18T16:16:02.352Z,7.50
2023-05-18T16:18:29.391Z,7.40
2023-05-18T16:20:56.611Z,15.40
2023-05-18T16:23:23.586Z,14.30
2023-05-18T16:25:50.818Z,7.80
2023-05-18T16:28:17.910Z,9.60
2023-05-18T16:30:44.863Z,7.80
2023-05-18T16:33:13.710Z,16.10
2023-05-18T16:35:41.192Z,12.30
2023-05-18T16:38:08.185Z,12.10
2023-05-18T16:40:35.266Z,9.30
2023-05-18T16:43:02.462Z,11.30
2023-05-18T16:45:29.562Z,12.20
2023-05-18T16:47:56.553Z,10.50
2023-05-18T16:50:23.721Z,10.80
2023-05-18T16:52:50.604Z,10.10
2023-05-18T16:55:18.436Z,8.80
2023-05-18T16:57:45.645Z,10.90
2023-05-18T17:00:13.346Z,11.70
2023-05-18T17:02:40.762Z,9.70
2023-05-18T17:05:11.357Z,11.70
2023-05-18T17:07:38.260Z,7.00
2023-05-18T17:10:05.820Z,8.70
2023-05-18T17:12:33.792Z,11.90
2023-05-18T17:15:02.841Z,10.70
2023-05-18T17:17:29.940Z,8.50
2023-05-18T17:19:57.001Z,8.80
2023-05-18T17:22:23.985Z,8.20
2023-05-18T17:24:51.017Z,7.40
2023-05-18T17:27:18.071Z,12.30
2023-05-18T17:29:45.072Z,10.90
2023-05-18T17:32:11.921Z,9.80
2023-05-18T17:34:40.555Z,8.30
2023-05-18T17:37:08.229Z,12.40
2023-05-18T17:39:35.481Z,8.30
2023-05-18T17:42:03.561Z,15.50
2023-05-18T17:44:30.615Z,8.60
2023-05-18T17:46:57.971Z,13.40
2023-05-18T17:49:25.041Z,10.80
2023-05-18T17:51:52.641Z,11.00
2023-05-18T17:54:19.620Z,10.40
2023-05-18T17:56:46.905Z,10.80
2023-05-18T17:59:13.955Z,13.30
2023-05-18T18:01:40.900Z,11.00
2023-05-18T18:04:08.090Z,11.90
2023-05-18T18:06:36.096Z,10.90
2023-05-18T18:09:04.906Z,12.00
2023-05-18T18:11:32.106Z,12.40
2023-05-18T18:13:59.924Z,18.20
2023-05-18T18:16:27.016Z,11.60
2023-05-18T18:18:53.997Z,14.50
2023-05-18T18:21:20.898Z,11.40
2023-05-18T18:23:47.976Z,13.90
2023-05-18T18:26:15.024Z,14.10
2023-05-18T18:28:41.949Z,17.30
2023-05-18T18:31:09.357Z,12.70
2023-05-18T18:33:36.275Z,13.90
2023-05-18T18:36:05.828Z,12.90
2023-05-18T18:38:34.238Z,13.20
2023-05-18T18:41:04.534Z,15.00
2023-05-18T18:43:31.986Z,13.80
2023-05-18T18:45:59.400Z,22.40
2023-05-18T18:48:27.024Z,14.10
2023-05-18T18:50:54.058Z,13.00
2023-05-18T18:53:21.011Z,15.30
2023-05-18T18:55:48.177Z,11.50
2023-05-18T18:58:15.329Z,13.70
2023-05-18T19:00:42.334Z,12.40
2023-05-18T19:03:14.679Z,13.20
2023-05-18T19:05:41.681Z,12.80
2023-05-18T19:08:08.662Z,12.60
2023-05-18T19:10:36.164Z,12.80
2023-05-18T19:13:06.094Z,9.60
2023-05-18T19:15:34.324Z,13.00
2023-05-18T19:18:01.641Z,13.20
2023-05-18T19:20:28.752Z,12.10
2023-05-18T19:22:55.776Z,10.70
2023-05-18T19:25:24.880Z,13.30
2023-05-18T19:27:53.070Z,10.60
2023-05-18T19:30:23.759Z,14.20
2023-05-18T19:32:51.768Z,12.10
2023-05-18T19:35:23.786Z,15.50
2023-05-18T19:37:51.592Z,16.20
2023-05-18T19:40:18.779Z,15.50
2023-05-18T19:42:45.744Z,23.30
2023-05-18T19:45:12.779Z,24.00
2023-05-18T19:47:39.686Z,17.70
2023-05-18T19:50:08.267Z,22.00
2023-05-18T19:52:35.384Z,21.90
2023-05-18T19:55:02.697Z,19.80
2023-05-18T19:57:29.856Z,21.30
2023-05-18T19:59:58.047Z,26.60
2023-05-18T20:02:25.638Z,17.10
2023-05-18T20:04:53.911Z,22.60
2023-05-18T20:07:22.778Z,30.10
2023-05-18T20:09:50.074Z,19.90
2023-05-18T20:12:16.955Z,23.20
2023-05-18T20:14:43.978Z,26.80
2023-05-18T20:17:11.032Z,24.10
2023-05-18T20:19:38.109Z,17.20
2023-05-18T20:22:05.234Z,20.50
2023-05-18T20:24:32.913Z,16.30
2023-05-18T20:26:59.995Z,22.30
2023-05-18T20:29:27.185Z,19.00
2023-05-18T20:31:55.255Z,18.80
2023-05-18T20:34:22.449Z,19.50
2023-05-18T20:36:49.410Z,19.80
2023-05-18T20:39:16.361Z,20.10
2023-05-18T20:41:43.343Z,18.10
2023-05-18T20:44:11.387Z,21.80
2023-05-18T20:46:42.446Z,16.50
2023-05-18T20:49:12.219Z,15.40
2023-05-18T20:51:39.204Z,16.90
2023-05-18T20:54:06.308Z,19.20
2023-05-18T20:56:34.029Z,15.90
2023-05-18T20:59:01.524Z,17.10
2023-05-18T21:01:29.145Z,16.60
2023-05-18T21:03:59.357Z,15.50
2023-05-18T21:06:26.946Z,15.10
2023-05-18T21:08:53.926Z,17.60
2023-05-18T21:11:21.573Z,16.80
2023-05-18T21:13:48.619Z,18.00
2023-05-18T21:16:15.798Z,15.70
2023-05-18T21:18:42.839Z,13.80
2023-05-18T21:21:10.095Z,14.60
2023-05-18T21:23:37.343Z,14.20
2023-05-18T21:26:04.403Z,14.50
2023-05-18T21:28:31.292Z,15.60
2023-05-18T21:30:58.216Z,17.80
2023-05-18T21:33:25.400Z,17.10
2023-05-18T21:35:52.461Z,14.70
2023-05-18T21:38:19.502Z,11.90
2023-05-18T21:40:47.011Z,11.90
2023-05-18T21:43:14.059Z,12.10
2023-05-18T21:45:41.191Z,14.10
2023-05-18T21:48:08.659Z,14.70
2023-05-18T21:50:35.928Z,13.80
2023-05-18T21:53:03.470Z,17.10
2023-05-18T21:55:31.704Z,18.70
2023-05-18T21:57:58.691Z,16.20
2023-05-18T22:00:26.138Z,17.20
2023-05-18T22:02:53.139Z,23.60
2023-05-18T22:05:20.345Z,18.10
2023-05-18T22:07:47.286Z,15.70
2023-05-18T22:10:14.222Z,17.20
2023-05-18T22:12:43.699Z,18.60
2023-05-18T22:15:11.012Z,15.10
2023-05-18T22:17:39.200Z,17.00
2023-05-18T22:20:09.830Z,15.60
2023-05-18T22:22:37.141Z,15.00
2023-05-18T22:25:04.233Z,16.10
2023-05-18T22:27:31.659Z,14.20
2023-05-18T22:29:59.033Z,16.00
2023-05-18T22:32:26.350Z,15.70
2023-05-18T22:34:54.288Z,14.20
2023-05-18T22:37:21.176Z,18.30
2023-05-18T22:39:48.286Z,16.40
2023-05-18T22:42:15.241Z,15.40
2023-05-18T22:44:42.122Z,16.80
2023-05-18T22:47:09.497Z,15.90
2023-05-18T22:49:36.610Z,15.10
2023-05-18T22:52:06.845Z,12.20
2023-05-18T22:54:34.041Z,12.60
2023-05-18T22:57:01.542Z,19.40
2023-05-18T22:59:29.012Z,16.70
2023-05-18T23:01:56.082Z,18.20
2023-05-18T23:04:23.226Z,20.50
2023-05-18T23:06:50.933Z,16.30
2023-05-18T23:09:18.870Z,18.30
2023-05-18T23:11:46.258Z,19.60
2023-05-18T23:14:14.346Z,24.70
2023-05-18T23:16:43.062Z,21.70
2023-05-18T23:19:12.677Z,21.30
2023-05-18T23:21:40.537Z,21.90
2023-05-18T23:24:12.262Z,22.20
2023-05-18T23:26:43.063Z,20.60
2023-05-18T23:29:10.347Z,25.10
2023-05-18T23:31:37.467Z,18.50
2023-05-18T23:34:04.496Z,22.90
2023-05-18T23:36:35.171Z,23.50
2023-05-18T23:39:03.848Z,22.40
2023-05-18T23:41:31.654Z,23.50
2023-05-18T23:43:58.937Z,20.40
2023-05-18T23:46:26.372Z,23.30
2023-05-18T23:48:53.752Z,26.40
2023-05-18T23:51:21.216Z,21.00
2023-05-18T23:53:49.532Z,25.90
2023-05-18T23:56:16.950Z,23.70
2023-05-18T23:58:45.786Z,21.60
